Terminal Aerodrome Forecast
Issued by NWS

Current Version | Previous Version | Graphics & Text | Print | Product List | Glossary On
Versions: 1 2 3 4 5 6 7 8 9 10 11 12 13 14 15 16 17
449
FTUS41 KILN 200900 AAA
TAFLCK
TAF AMD
KLCK 200900Z 2009/2106 00000KT P6SM SKC
     FM201400 16005KT P6SM FEW250
     FM210000 00000KT P6SM SCT250=

USA.gov is the U.S. government's official web portal to all federal, state and local government web resources and services.